Time;durP1;ratioP1;P1;durP2;ratioP2;P2;SDS_P1;SDS_P2;PMS_P1;PMS_P2;Temp;Humidity;BMP_temperature;BMP_pressure;BME280_temperature;BME280_humidity;BME280_pressure;Samples;Min_cycle;Max_cycle;Signal;HPM_P1;HPM_P2
2021/03/12 00:00:44;;;;;;;3.00;1.10;;;8.20;62.80;;;;;;5052524;28;20235;-79
2021/03/12 00:03:12;;;;;;;1.15;0.95;;;8.30;62.70;;;;;;5048859;28;20195;-79
2021/03/12 00:05:43;;;;;;;1.35;1.00;;;8.30;62.50;;;;;;5043008;28;20203;-79
2021/03/12 00:08:11;;;;;;;0.80;0.80;;;8.30;61.30;;;;;;5048081;28;20210;-79
2021/03/12 00:10:37;;;;;;;1.73;0.98;;;8.40;61.20;;;;;;5075545;28;20226;-79
2021/03/12 00:13:04;;;;;;;3.55;1.33;;;8.40;60.40;;;;;;5073633;28;20238;-79
2021/03/12 00:15:31;;;;;;;1.30;0.80;;;8.50;60.00;;;;;;5055495;28;20187;-79
2021/03/12 00:17:57;;;;;;;2.85;0.93;;;8.50;60.20;;;;;;5051263;28;20253;-79
2021/03/12 00:20:27;;;;;;;2.05;0.80;;;8.50;60.20;;;;;;5071943;28;20233;-79
2021/03/12 00:22:53;;;;;;;1.08;0.50;;;7.60;62.50;;;;;;5065248;28;20221;-82
2021/03/12 00:25:24;;;;;;;1.30;0.80;;;6.80;67.20;;;;;;5038659;28;20272;-79
2021/03/12 00:27:50;;;;;;;0.90;0.50;;;6.30;72.80;;;;;;5039853;28;20231;-81
2021/03/12 00:30:18;;;;;;;1.30;0.43;;;6.10;75.80;;;;;;5057269;28;20249;-82
2021/03/12 00:32:44;;;;;;;2.58;0.75;;;5.90;79.20;;;;;;5059216;28;20245;-80
2021/03/12 00:35:11;;;;;;;0.60;0.47;;;5.80;81.10;;;;;;5047505;28;20234;-80
2021/03/12 00:37:38;;;;;;;0.70;0.50;;;5.70;82.80;;;;;;5046859;28;20199;-82
2021/03/12 00:40:09;;;;;;;1.40;0.50;;;5.60;83.90;;;;;;5048969;28;20237;-81
2021/03/12 00:42:37;;;;;;;0.75;0.60;;;5.50;84.80;;;;;;5056371;28;20654;-80
2021/03/12 00:45:04;;;;;;;0.65;0.65;;;5.50;86.00;;;;;;5056447;28;20240;-81
2021/03/12 00:47:30;;;;;;;0.40;0.40;;;5.50;87.00;;;;;;5056647;28;20202;-80
2021/03/12 00:49:57;;;;;;;0.55;0.55;;;5.50;88.00;;;;;;5056889;28;20204;-80
2021/03/12 00:52:23;;;;;;;0.70;0.65;;;5.50;89.00;;;;;;5058763;28;20632;-81
2021/03/12 00:54:50;;;;;;;1.85;0.55;;;5.50;90.00;;;;;;5036931;28;20549;-79
2021/03/12 00:57:16;;;;;;;1.55;1.27;;;5.50;90.00;;;;;;5033647;28;20230;-79
2021/03/12 00:59:43;;;;;;;0.90;0.60;;;5.50;90.10;;;;;;5053045;28;20225;-82
2021/03/12 01:02:10;;;;;;;3.58;1.15;;;5.40;90.60;;;;;;5068331;28;20202;-82
2021/03/12 01:04:36;;;;;;;5.18;0.98;;;5.40;91.50;;;;;;5070394;28;20206;-81
2021/03/12 01:07:03;;;;;;;3.50;0.90;;;5.50;92.30;;;;;;5056429;28;20254;-82
2021/03/12 01:09:29;;;;;;;3.30;0.90;;;5.50;92.70;;;;;;5055437;28;20198;-82
2021/03/12 01:11:55;;;;;;;2.65;1.35;;;5.50;93.00;;;;;;5055758;28;20239;-81
2021/03/12 01:14:23;;;;;;;1.40;0.88;;;5.50;92.70;;;;;;5055417;28;20203;-80
2021/03/12 01:16:51;;;;;;;1.25;1.15;;;5.50;92.70;;;;;;5055650;28;20244;-81
2021/03/12 01:19:18;;;;;;;1.00;0.80;;;5.40;92.50;;;;;;5058044;28;20520;-80
2021/03/12 01:21:44;;;;;;;2.75;0.93;;;5.40;92.70;;;;;;5053966;28;20309;-82
2021/03/12 01:24:12;;;;;;;1.20;0.90;;;5.40;92.80;;;;;;5058196;28;20203;-80
2021/03/12 01:26:38;;;;;;;3.90;1.10;;;5.40;92.80;;;;;;5057436;28;20202;-81
2021/03/12 01:29:05;;;;;;;0.80;0.80;;;5.40;92.70;;;;;;5073171;28;20221;-81
2021/03/12 01:31:31;;;;;;;0.82;0.80;;;5.40;92.50;;;;;;5073238;28;20207;-82
2021/03/12 01:33:59;;;;;;;0.80;0.80;;;5.40;92.20;;;;;;5050179;28;20276;-79
2021/03/12 01:36:25;;;;;;;2.05;0.80;;;5.40;92.10;;;;;;5043912;28;20220;-80
2021/03/12 01:38:52;;;;;;;3.17;1.25;;;5.40;92.10;;;;;;5062014;28;20241;-80
2021/03/12 01:41:18;;;;;;;1.70;0.90;;;5.40;91.90;;;;;;5065293;28;20629;-80
2021/03/12 01:43:45;;;;;;;2.65;1.30;;;5.40;91.80;;;;;;5049756;28;20386;-81
2021/03/12 01:46:11;;;;;;;3.40;1.20;;;5.40;91.60;;;;;;5038481;28;20235;-79
2021/03/12 01:48:38;;;;;;;6.20;1.30;;;5.40;91.10;;;;;;5038738;28;20208;-81
2021/03/12 01:51:08;;;;;;;3.15;0.82;;;5.50;90.50;;;;;;5049697;28;20270;-80
2021/03/12 01:53:36;;;;;;;3.63;1.30;;;5.60;90.00;;;;;;5064194;28;20218;-80
2021/03/12 01:56:03;;;;;;;1.45;0.90;;;5.60;90.00;;;;;;5064078;28;20217;-79
2021/03/12 01:58:29;;;;;;;3.75;1.65;;;5.60;88.90;;;;;;5038361;28;20208;-79
2021/03/12 02:00:56;;;;;;;2.90;1.02;;;5.70;88.00;;;;;;5038592;28;20698;-79
2021/03/12 02:03:26;;;;;;;3.22;1.33;;;5.80;85.80;;;;;;5038068;28;20238;-80
2021/03/12 02:05:52;;;;;;;5.22;1.35;;;5.80;83.70;;;;;;5037553;28;20234;-79
2021/03/12 02:08:20;;;;;;;4.97;1.45;;;6.00;82.30;;;;;;5050276;28;20240;-79
2021/03/12 02:10:49;;;;;;;3.90;1.13;;;6.20;78.90;;;;;;5055491;28;20367;-79
2021/03/12 02:13:32;;;;;;;2.30;1.00;;;6.40;75.40;;;;;;5042622;28;20315;-79
2021/03/12 02:16:06;;;;;;;4.65;1.33;;;6.60;73.00;;;;;;5041805;28;20450;-80
2021/03/12 02:18:38;;;;;;;4.43;1.60;;;6.60;73.10;;;;;;5064373;28;20202;-81
2021/03/12 02:21:10;;;;;;;2.13;1.10;;;6.60;74.40;;;;;;5071690;28;20290;-81
2021/03/12 02:23:59;;;;;;;3.67;0.98;;;6.50;75.00;;;;;;5057016;28;20267;-81
2021/03/12 02:26:45;;;;;;;3.40;0.80;;;6.50;76.10;;;;;;5058737;28;20255;-79
2021/03/12 02:29:16;;;;;;;2.08;1.67;;;6.50;77.10;;;;;;5045641;28;20196;-81
2021/03/12 02:31:42;;;;;;;3.88;1.25;;;6.60;76.80;;;;;;5054782;28;20330;-80
2021/03/12 02:34:11;;;;;;;1.77;1.25;;;6.60;75.60;;;;;;5051567;28;20279;-80
2021/03/12 02:36:43;;;;;;;5.55;1.20;;;6.70;74.50;;;;;;5050928;28;20206;-79
2021/03/12 02:39:12;;;;;;;2.22;1.00;;;6.80;73.90;;;;;;5050657;28;20201;-79
2021/03/12 02:41:40;;;;;;;5.30;1.10;;;6.80;72.80;;;;;;5093027;23;20223;-76
2021/03/12 02:44:08;;;;;;;2.80;1.20;;;6.80;71.40;;;;;;5058498;28;20217;-76
2021/03/12 02:46:37;;;;;;;1.63;1.10;;;6.90;69.90;;;;;;5058323;28;20535;-76
2021/03/12 02:49:05;;;;;;;4.85;1.35;;;7.00;68.00;;;;;;5060555;28;20219;-76
2021/03/12 02:51:32;;;;;;;2.40;1.15;;;7.10;66.10;;;;;;5059550;28;20266;-76
2021/03/12 02:54:00;;;;;;;1.98;0.88;;;7.00;66.00;;;;;;5059104;28;20257;-76
2021/03/12 02:56:27;;;;;;;4.97;1.35;;;7.20;63.90;;;;;;5047870;28;20218;-77
2021/03/12 02:58:55;;;;;;;2.05;0.80;;;7.00;67.30;;;;;;5049446;28;20215;-76
2021/03/12 03:01:22;;;;;;;2.33;1.05;;;6.60;72.90;;;;;;5053743;28;20318;-77
2021/03/12 03:03:52;;;;;;;2.25;0.80;;;6.30;78.00;;;;;;5052633;28;20231;-77
2021/03/12 03:06:20;;;;;;;2.40;1.00;;;6.10;81.00;;;;;;5053267;28;20203;-78
2021/03/12 03:08:48;;;;;;;3.78;1.25;;;6.00;82.30;;;;;;5051412;28;20237;-75
2021/03/12 03:11:16;;;;;;;1.50;1.02;;;5.90;82.20;;;;;;5065836;28;20250;-75
2021/03/12 03:13:45;;;;;;;2.92;0.95;;;6.00;81.70;;;;;;5069109;28;20254;-75
2021/03/12 03:16:15;;;;;;;1.15;0.80;;;6.00;81.10;;;;;;5054780;28;20221;-75
2021/03/12 03:18:42;;;;;;;3.17;1.02;;;5.90;80.70;;;;;;5051691;28;20195;-76
2021/03/12 03:21:10;;;;;;;2.15;0.98;;;5.90;80.50;;;;;;5050116;28;20207;-75
2021/03/12 03:23:39;;;;;;;2.78;0.93;;;5.80;79.40;;;;;;5041341;28;20203;-76
2021/03/12 03:26:06;;;;;;;4.20;1.10;;;5.80;78.80;;;;;;5039917;28;20221;-76
2021/03/12 03:28:32;;;;;;;2.05;1.10;;;5.90;77.00;;;;;;5035788;28;20318;-76
2021/03/12 03:31:00;;;;;;;5.20;1.10;;;5.90;75.20;;;;;;5035250;28;20227;-76
2021/03/12 03:33:27;;;;;;;3.85;1.30;;;5.90;73.80;;;;;;5035022;28;20315;-75
2021/03/12 03:35:53;;;;;;;2.08;1.00;;;6.00;72.10;;;;;;5053473;28;20665;-76
2021/03/12 03:38:20;;;;;;;2.30;0.93;;;6.20;69.70;;;;;;5055065;28;20297;-76
2021/03/12 03:40:47;;;;;;;1.98;0.90;;;6.40;65.50;;;;;;5052989;28;20234;-75
2021/03/12 03:43:15;;;;;;;2.83;1.02;;;6.50;63.60;;;;;;5055352;28;20239;-76
2021/03/12 03:45:45;;;;;;;2.95;0.95;;;6.60;62.00;;;;;;5040608;28;20211;-75
2021/03/12 03:48:14;;;;;;;4.70;0.93;;;6.60;61.20;;;;;;5035789;28;20286;-76
2021/03/12 03:50:42;;;;;;;2.88;0.77;;;6.70;60.40;;;;;;5036421;28;20223;-76
2021/03/12 03:53:09;;;;;;;1.85;1.10;;;6.70;59.10;;;;;;5035742;28;20235;-76
2021/03/12 03:55:37;;;;;;;5.70;1.10;;;6.80;58.40;;;;;;5048103;28;20230;-76
2021/03/12 03:58:05;;;;;;;4.57;1.08;;;6.80;56.90;;;;;;5054574;28;20270;-75
2021/03/12 04:00:32;;;;;;;5.35;1.20;;;6.80;56.90;;;;;;5043566;28;20317;-76
2021/03/12 04:02:59;;;;;;;4.82;1.00;;;6.80;58.10;;;;;;5034291;28;20489;-76
2021/03/12 04:05:27;;;;;;;4.43;1.10;;;6.80;56.90;;;;;;5046577;28;20234;-75
2021/03/12 04:07:54;;;;;;;4.95;1.10;;;6.70;56.80;;;;;;5054742;28;20743;-76
2021/03/12 04:10:21;;;;;;;2.45;0.80;;;6.70;56.80;;;;;;5047077;28;20282;-76
2021/03/12 04:12:49;;;;;;;3.90;1.17;;;6.60;56.90;;;;;;5034725;28;20747;-75
2021/03/12 04:15:17;;;;;;;7.95;2.00;;;6.60;58.40;;;;;;5036023;28;20279;-76
2021/03/12 04:17:44;;;;;;;11.40;1.55;;;6.60;57.70;;;;;;5037307;28;20203;-76
2021/03/12 04:20:12;;;;;;;4.55;1.10;;;6.60;58.20;;;;;;5046196;28;20554;-75
2021/03/12 04:22:40;;;;;;;3.35;1.15;;;6.50;58.00;;;;;;5056227;28;20230;-76
2021/03/12 04:25:07;;;;;;;6.07;1.23;;;6.50;57.90;;;;;;5055362;28;20313;-75
2021/03/12 04:27:34;;;;;;;7.28;1.63;;;6.50;58.80;;;;;;5055608;28;20510;-75
2021/03/12 04:30:03;;;;;;;9.43;1.60;;;6.40;58.60;;;;;;5053524;28;20226;-76
2021/03/12 04:32:29;;;;;;;2.13;1.30;;;6.40;58.50;;;;;;5054481;28;20327;-75
2021/03/12 04:34:56;;;;;;;6.43;1.90;;;6.50;58.50;;;;;;5054103;28;20585;-76
2021/03/12 04:37:23;;;;;;;4.75;1.48;;;6.50;58.50;;;;;;5056897;28;20249;-75
2021/03/12 04:39:51;;;;;;;6.57;1.30;;;6.50;58.50;;;;;;5057137;28;20666;-75
2021/03/12 04:42:18;;;;;;;5.55;1.40;;;6.50;58.30;;;;;;5054450;28;20256;-75
2021/03/12 04:44:45;;;;;;;4.20;1.25;;;6.50;57.90;;;;;;5057941;28;20216;-77
2021/03/12 04:47:12;;;;;;;3.67;1.70;;;6.40;58.50;;;;;;5045151;28;20598;-75
2021/03/12 04:49:39;;;;;;;2.70;1.05;;;6.40;58.10;;;;;;5046701;28;20238;-75
2021/03/12 04:52:06;;;;;;;3.58;1.20;;;6.40;58.10;;;;;;5061859;28;20223;-75
2021/03/12 04:54:33;;;;;;;4.88;1.20;;;6.30;58.20;;;;;;5063929;28;20230;-76
2021/03/12 04:57:00;;;;;;;3.80;1.30;;;6.30;58.00;;;;;;5063357;28;20259;-77
2021/03/12 04:59:27;;;;;;;5.53;1.25;;;6.30;58.10;;;;;;5065749;28;20202;-76
2021/03/12 05:01:53;;;;;;;6.65;1.35;;;6.30;57.40;;;;;;5064726;28;20301;-75
2021/03/12 05:04:21;;;;;;;8.35;2.35;;;6.30;57.80;;;;;;5067450;28;20237;-76
2021/03/12 05:06:48;;;;;;;3.45;1.05;;;6.20;58.60;;;;;;5068585;28;20211;-76
2021/03/12 05:09:14;;;;;;;4.70;1.50;;;6.20;58.00;;;;;;5054743;28;20259;-76
2021/03/12 05:11:43;;;;;;;2.45;1.33;;;6.20;58.00;;;;;;5054030;28;20313;-75
2021/03/12 05:14:10;;;;;;;4.07;1.08;;;6.20;57.90;;;;;;5042374;28;20226;-74
2021/03/12 05:16:37;;;;;;;4.85;1.70;;;6.20;57.80;;;;;;5038774;28;20254;-76
2021/03/12 05:19:03;;;;;;;3.80;1.10;;;6.20;58.40;;;;;;5060381;28;20228;-75
2021/03/12 05:21:31;;;;;;;3.30;1.27;;;6.20;58.60;;;;;;5066532;28;20226;-75
2021/03/12 05:23:58;;;;;;;2.83;1.25;;;6.20;59.00;;;;;;5047438;28;20207;-75
2021/03/12 05:26:24;;;;;;;4.43;1.00;;;6.10;59.30;;;;;;5036665;28;20607;-76
2021/03/12 05:28:53;;;;;;;2.45;1.30;;;6.10;60.00;;;;;;5047941;28;20210;-75
2021/03/12 05:31:20;;;;;;;2.90;1.00;;;6.00;60.00;;;;;;5047180;28;20218;-75
2021/03/12 05:33:46;;;;;;;3.35;1.10;;;6.00;60.00;;;;;;5053443;28;20329;-76
2021/03/12 05:36:13;;;;;;;3.70;1.20;;;6.00;59.60;;;;;;5052882;28;20203;-76
2021/03/12 05:38:40;;;;;;;2.15;0.93;;;6.00;60.30;;;;;;5053993;28;20203;-75
2021/03/12 05:41:07;;;;;;;2.78;0.70;;;5.90;59.90;;;;;;5052201;28;20234;-77
2021/03/12 05:43:34;;;;;;;2.42;0.90;;;5.90;60.60;;;;;;5033704;28;20270;-76
2021/03/12 05:46:01;;;;;;;6.05;0.90;;;5.80;61.00;;;;;;5049727;28;20241;-75
2021/03/12 05:48:28;;;;;;;1.00;0.90;;;5.80;61.90;;;;;;5054619;28;20215;-76
2021/03/12 05:50:58;;;;;;;1.00;0.90;;;5.80;62.70;;;;;;5038696;28;20273;-75
2021/03/12 05:53:25;;;;;;;8.35;2.10;;;5.80;63.00;;;;;;5034292;28;20401;-75
2021/03/12 05:55:53;;;;;;;8.43;1.25;;;5.80;62.80;;;;;;5044695;28;20227;-76
2021/03/12 05:58:19;;;;;;;3.25;1.00;;;5.80;62.80;;;;;;5037251;28;20219;-76
2021/03/12 06:00:45;;;;;;;3.97;1.40;;;5.90;62.70;;;;;;5041177;28;20215;-76
2021/03/12 06:03:12;;;;;;;6.43;3.72;;;5.90;62.30;;;;;;5036103;28;20238;-76
2021/03/12 06:05:38;;;;;;;5.95;1.33;;;5.90;62.70;;;;;;5064040;28;20695;-76
2021/03/12 06:08:05;;;;;;;3.63;1.15;;;5.90;62.40;;;;;;5068560;28;20669;-76
2021/03/12 06:10:32;;;;;;;3.70;1.13;;;6.00;62.70;;;;;;5055804;28;20259;-76
2021/03/12 06:13:01;;;;;;;7.38;1.30;;;6.00;62.50;;;;;;5049410;28;20524;-75
2021/03/12 06:15:35;;;;;;;2.97;0.90;;;6.00;62.10;;;;;;5058207;28;20203;-76
2021/03/12 06:18:14;;;;;;;2.60;1.15;;;6.20;61.90;;;;;;5076553;28;20191;-76
2021/03/12 06:20:41;;;;;;;3.53;1.00;;;6.20;61.80;;;;;;5078078;28;20260;-75
2021/03/12 06:23:09;;;;;;;4.80;1.08;;;6.30;61.00;;;;;;5078423;28;20199;-75
2021/03/12 06:25:36;;;;;;;2.47;1.10;;;6.40;61.00;;;;;;5078213;28;20233;-76
2021/03/12 06:28:17;;;;;;;1.50;1.05;;;6.50;60.70;;;;;;5078577;28;20206;-76
2021/03/12 06:30:45;;;;;;;1.50;0.88;;;6.50;60.70;;;;;;5065298;28;20222;-77
2021/03/12 06:33:26;;;;;;;5.60;1.33;;;6.50;60.00;;;;;;5057675;28;20227;-75
2021/03/12 06:35:54;;;;;;;1.67;0.77;;;6.50;60.30;;;;;;5058209;28;20211;-77
2021/03/12 06:38:20;;;;;;;2.70;1.08;;;6.50;60.60;;;;;;5056834;28;20233;-77
2021/03/12 06:40:47;;;;;;;0.95;0.90;;;6.40;60.50;;;;;;5071629;28;20260;-75
2021/03/12 06:43:15;;;;;;;3.33;0.90;;;6.40;60.70;;;;;;5077248;28;20207;-76
2021/03/12 06:46:00;;;;;;;4.53;1.20;;;6.50;60.90;;;;;;5073719;28;20206;-75
2021/03/12 06:48:29;;;;;;;1.70;0.93;;;6.50;60.70;;;;;;5077863;28;20190;-74
2021/03/12 06:50:57;;;;;;;4.05;1.63;;;6.50;59.70;;;;;;5076664;28;20274;-75
2021/03/12 06:53:27;;;;;;;1.27;0.75;;;6.50;60.00;;;;;;5077987;28;20254;-80
2021/03/12 06:55:55;;;;;;;3.75;1.10;;;6.60;59.90;;;;;;5076725;28;20198;-74
2021/03/12 06:58:22;;;;;;;2.50;1.00;;;6.60;59.60;;;;;;5063330;28;20255;-77
2021/03/12 07:00:49;;;;;;;2.67;0.80;;;6.60;58.90;;;;;;5056782;28;20215;-78
2021/03/12 07:03:24;;;;;;;2.20;0.98;;;6.70;58.90;;;;;;5056865;28;20302;-75
2021/03/12 07:05:59;;;;;;;2.28;1.55;;;6.70;57.20;;;;;;5055756;28;20198;-76
2021/03/12 07:08:34;;;;;;;2.55;1.30;;;6.80;57.30;;;;;;5055412;28;20262;-75
2021/03/12 07:11:02;;;;;;;6.30;1.40;;;6.90;57.00;;;;;;5056789;28;20508;-78
2021/03/12 07:13:29;;;;;;;3.15;1.13;;;6.90;57.00;;;;;;5057495;28;20199;-76
2021/03/12 07:15:58;;;;;;;5.10;1.33;;;7.00;57.10;;;;;;5029895;28;20239;-77
2021/03/12 07:18:25;;;;;;;3.38;1.23;;;7.10;57.10;;;;;;5057848;28;20191;-77
2021/03/12 07:20:52;;;;;;;6.53;1.25;;;7.20;56.40;;;;;;5057661;28;20218;-77
2021/03/12 07:23:21;;;;;;;2.90;1.20;;;7.10;57.10;;;;;;5058816;28;20210;-76
2021/03/12 07:25:51;;;;;;;3.15;1.40;;;7.20;57.20;;;;;;5058601;28;20215;-77
2021/03/12 07:28:21;;;;;;;6.50;1.00;;;7.20;57.20;;;;;;5058914;28;20172;-76
2021/03/12 07:30:51;;;;;;;4.00;1.15;;;7.30;57.30;;;;;;5058584;28;20231;-77
2021/03/12 07:33:22;;;;;;;3.25;1.35;;;7.30;57.30;;;;;;5058301;28;20207;-77
2021/03/12 07:35:50;;;;;;;3.97;1.40;;;7.30;57.30;;;;;;5065246;28;20186;-78
2021/03/12 07:38:17;;;;;;;10.63;1.65;;;7.40;56.90;;;;;;5076060;28;20190;-75
2021/03/12 07:40:44;;;;;;;3.45;1.00;;;7.50;56.90;;;;;;5076565;28;20223;-76
2021/03/12 07:43:13;;;;;;;2.72;1.23;;;7.50;55.60;;;;;;5077540;28;20213;-78
2021/03/12 07:45:42;;;;;;;4.40;1.17;;;7.60;55.10;;;;;;5076259;28;20238;-78
2021/03/12 07:48:09;;;;;;;4.65;1.00;;;7.60;54.90;;;;;;5071176;28;20233;-78
2021/03/12 07:50:38;;;;;;;3.97;1.20;;;7.50;55.00;;;;;;5055079;28;20211;-78
2021/03/12 07:53:07;;;;;;;2.63;0.93;;;7.60;55.80;;;;;;5056453;28;20239;-78
2021/03/12 07:55:51;;;;;;;3.78;1.20;;;7.70;55.40;;;;;;5056960;28;20443;-77
2021/03/12 07:58:53;;;;;;;3.95;1.70;;;7.80;55.70;;;;;;5057002;28;20206;-78
2021/03/12 08:01:21;;;;;;;4.20;0.90;;;8.00;55.30;;;;;;5056068;28;20256;-79
2021/03/12 08:03:49;;;;;;;5.80;1.42;;;8.00;55.50;;;;;;5057155;28;20191;-77
2021/03/12 08:06:31;;;;;;;2.22;1.08;;;7.90;57.90;;;;;;5057542;28;20186;-76
2021/03/12 08:08:59;;;;;;;6.55;1.60;;;7.50;57.50;;;;;;5056434;28;20199;-77
2021/03/12 08:11:29;;;;;;;4.82;0.90;;;7.40;59.80;;;;;;5057786;28;20215;-80
2021/03/12 08:14:10;;;;;;;1.23;0.80;;;7.40;60.30;;;;;;5058478;28;20211;-79
2021/03/12 08:16:37;;;;;;;1.58;0.95;;;7.40;60.70;;;;;;5059209;28;20254;-78
2021/03/12 08:19:28;;;;;;;3.42;1.30;;;7.60;59.90;;;;;;5058735;28;20198;-78
2021/03/12 08:21:54;;;;;;;2.20;0.90;;;7.80;57.80;;;;;;5059934;28;20211;-79
2021/03/12 08:24:49;;;;;;;2.80;1.30;;;8.10;58.00;;;;;;5078063;28;20202;-77
2021/03/12 08:27:37;;;;;;;5.45;1.60;;;8.30;56.80;;;;;;5076842;28;20198;-79
2021/03/12 08:30:05;;;;;;;6.05;1.15;;;8.60;56.40;;;;;;5077775;28;20193;-78
2021/03/12 08:32:45;;;;;;;2.05;0.70;;;8.50;55.90;;;;;;5077437;28;20190;-78
2021/03/12 08:35:39;;;;;;;2.45;1.23;;;8.40;56.70;;;;;;5077440;28;20210;-78
2021/03/12 08:38:25;;;;;;;3.95;1.70;;;8.20;57.10;;;;;;5076992;28;20278;-79
2021/03/12 08:40:56;;;;;;;2.17;0.80;;;8.30;58.20;;;;;;5077480;28;20222;-77
2021/03/12 08:43:25;;;;;;;3.20;0.95;;;8.60;56.80;;;;;;5076555;28;20194;-74
2021/03/12 08:45:53;;;;;;;2.40;1.10;;;8.70;55.50;;;;;;5076190;28;20186;-77
2021/03/12 08:48:23;;;;;;;6.10;1.27;;;8.60;55.50;;;;;;5055100;28;20199;-77
2021/03/12 08:50:53;;;;;;;2.40;1.10;;;8.60;55.20;;;;;;5055040;28;20218;-77
2021/03/12 08:53:21;;;;;;;6.53;1.30;;;8.60;55.00;;;;;;5056403;28;20226;-78
2021/03/12 08:55:49;;;;;;;2.30;1.15;;;8.60;52.60;;;;;;5053548;28;20191;-78
2021/03/12 08:58:18;;;;;;;3.97;1.48;;;8.50;51.90;;;;;;5055101;28;20195;-77
2021/03/12 09:00:47;;;;;;;5.60;1.80;;;8.70;51.00;;;;;;5048682;28;20250;-77
2021/03/12 09:03:18;;;;;;;3.65;1.30;;;9.10;50.60;;;;;;5065873;28;20214;-76
2021/03/12 09:05:46;;;;;;;3.45;1.30;;;9.30;48.30;;;;;;5068524;28;20215;-78
2021/03/12 09:08:14;;;;;;;1.80;1.10;;;9.40;48.00;;;;;;5047768;28;20229;-78
2021/03/12 09:10:41;;;;;;;5.75;1.02;;;9.60;46.60;;;;;;5047759;28;20290;-78
2021/03/12 09:13:19;;;;;;;2.17;1.15;;;9.60;45.60;;;;;;5061255;28;20222;-78
2021/03/12 09:15:46;;;;;;;2.38;0.90;;;9.40;44.90;;;;;;5066117;28;20558;-77
2021/03/12 09:18:14;;;;;;;7.40;1.20;;;9.20;45.10;;;;;;5063119;28;20234;-79
2021/03/12 09:20:42;;;;;;;5.10;1.48;;;8.90;45.10;;;;;;5066248;28;20230;-76
2021/03/12 09:23:09;;;;;;;5.72;1.40;;;8.70;45.80;;;;;;5071857;28;20203;-77
2021/03/12 09:25:35;;;;;;;6.57;1.25;;;8.70;46.50;;;;;;5074384;28;20220;-79
2021/03/12 09:28:08;;;;;;;4.07;1.02;;;8.90;45.40;;;;;;5074783;28;20198;-78
2021/03/12 09:30:37;;;;;;;4.30;1.20;;;9.10;44.60;;;;;;5072920;28;20229;-78
2021/03/12 09:33:06;;;;;;;6.05;1.05;;;9.10;44.00;;;;;;5075286;28;20218;-78
2021/03/12 09:35:39;;;;;;;4.15;2.17;;;9.00;44.00;;;;;;5066389;28;20206;-78
2021/03/12 09:38:06;;;;;;;1.67;0.95;;;9.10;42.90;;;;;;5058024;28;20211;-78
2021/03/12 09:40:39;;;;;;;6.75;1.20;;;9.40;42.20;;;;;;5070315;28;20278;-78
2021/03/12 09:43:08;;;;;;;6.57;1.48;;;9.50;41.60;;;;;;5080260;28;20177;-80
2021/03/12 09:45:37;;;;;;;2.58;0.80;;;9.70;40.20;;;;;;5077839;28;20210;-78
2021/03/12 09:48:04;;;;;;;5.75;1.30;;;10.00;39.70;;;;;;5077401;28;20211;-78
2021/03/12 09:50:35;;;;;;;11.02;1.60;;;10.20;38.80;;;;;;5069433;28;20242;-78
2021/03/12 09:53:05;;;;;;;5.88;1.58;;;10.50;37.50;;;;;;5058213;28;20203;-79
2021/03/12 09:55:34;;;;;;;4.65;1.30;;;10.50;37.10;;;;;;5067736;28;20218;-78
2021/03/12 09:58:03;;;;;;;3.33;0.93;;;10.40;35.60;;;;;;5077886;28;20194;-78
2021/03/12 10:00:29;;;;;;;5.95;1.52;;;10.20;36.20;;;;;;5079133;28;20217;-79
2021/03/12 10:02:58;;;;;;;3.35;1.42;;;10.30;36.80;;;;;;5079345;28;20203;-77
2021/03/12 10:05:25;;;;;;;5.03;1.27;;;10.40;34.90;;;;;;5079359;28;20203;-80
2021/03/12 10:07:53;;;;;;;7.32;1.08;;;10.40;35.30;;;;;;5078143;28;20194;-78
2021/03/12 10:10:23;;;;;;;2.60;1.30;;;10.50;34.50;;;;;;5073111;28;20225;-78
2021/03/12 10:12:50;;;;;;;7.63;1.45;;;10.50;34.70;;;;;;5058616;28;20263;-78
2021/03/12 10:15:18;;;;;;;3.95;1.00;;;10.60;35.90;;;;;;5056914;28;20210;-77
2021/03/12 10:17:46;;;;;;;3.80;1.20;;;10.60;35.10;;;;;;5054798;28;20199;-77
2021/03/12 10:20:28;;;;;;;7.78;1.55;;;10.50;37.70;;;;;;5072627;28;20210;-79
2021/03/12 10:22:58;;;;;;;5.00;1.60;;;10.50;39.20;;;;;;5069682;28;20214;-81
2021/03/12 10:25:27;;;;;;;5.15;1.40;;;10.50;40.00;;;;;;5048117;28;20621;-78
2021/03/12 10:27:55;;;;;;;6.80;1.80;;;10.50;40.00;;;;;;5045486;28;20234;-78
2021/03/12 10:30:24;;;;;;;2.63;1.20;;;10.30;39.80;;;;;;5060164;28;20261;-78
2021/03/12 10:32:52;;;;;;;4.15;1.50;;;10.30;39.80;;;;;;5062524;28;20574;-78
2021/03/12 10:35:29;;;;;;;7.75;2.38;;;10.20;39.70;;;;;;5045814;28;20230;-78
2021/03/12 10:37:59;;;;;;;5.88;2.00;;;10.50;40.00;;;;;;5050326;28;20289;-80
2021/03/12 10:40:28;;;;;;;6.18;1.65;;;10.60;39.30;;;;;;5054909;28;20322;-77
2021/03/12 10:42:57;;;;;;;3.50;1.40;;;10.80;37.40;;;;;;5050399;28;20203;-77
2021/03/12 10:45:27;;;;;;;5.15;1.55;;;10.90;36.90;;;;;;5049227;28;20203;-78
2021/03/12 10:48:09;;;;;;;6.63;1.70;;;11.30;36.10;;;;;;5052027;28;20606;-79
2021/03/12 10:50:38;;;;;;;3.33;1.23;;;11.40;33.20;;;;;;5047982;28;20226;-79
2021/03/12 10:53:14;;;;;;;2.70;1.20;;;11.60;32.80;;;;;;5047595;28;20253;-80
2021/03/12 10:55:43;;;;;;;3.45;1.27;;;11.60;30.90;;;;;;5049932;28;20200;-77
2021/03/12 10:58:23;;;;;;;7.45;1.77;;;11.50;30.80;;;;;;5059792;28;20203;-80
2021/03/12 11:01:04;;;;;;;6.10;1.27;;;11.50;30.80;;;;;;5076364;28;20238;-79
2021/03/12 11:03:30;;;;;;;3.60;1.13;;;11.20;30.60;;;;;;5066876;28;20218;-79
2021/03/12 11:06:01;;;;;;;4.30;1.15;;;11.00;31.70;;;;;;5055497;28;20199;-79
2021/03/12 11:08:29;;;;;;;5.28;1.33;;;11.00;31.60;;;;;;5061092;28;20194;-79
2021/03/12 11:10:56;;;;;;;1.55;1.17;;;11.10;31.10;;;;;;5057717;28;20227;-82
2021/03/12 11:13:23;;;;;;;3.63;1.30;;;11.10;31.10;;;;;;5045753;28;20250;-80
2021/03/12 11:15:50;;;;;;;2.55;1.00;;;11.00;31.90;;;;;;5055737;28;20241;-80
2021/03/12 11:18:17;;;;;;;7.25;1.23;;;11.10;31.60;;;;;;5066463;28;20230;-80
2021/03/12 11:20:44;;;;;;;2.40;1.15;;;11.30;30.70;;;;;;5060320;28;20410;-78
2021/03/12 11:23:12;;;;;;;2.45;0.90;;;11.30;30.70;;;;;;5043455;28;20290;-78
2021/03/12 11:25:39;;;;;;;4.25;1.65;;;11.30;30.70;;;;;;5050549;28;20199;-78
2021/03/12 11:28:06;;;;;;;4.13;1.10;;;11.20;30.60;;;;;;5063760;28;20242;-78
2021/03/12 11:30:32;;;;;;;4.07;1.38;;;11.10;32.00;;;;;;5046696;28;20242;-80
2021/03/12 11:32:59;;;;;;;4.32;1.40;;;11.10;31.00;;;;;;5057877;28;20227;-81
2021/03/12 11:35:25;;;;;;;2.92;1.40;;;11.20;31.40;;;;;;5039603;28;20207;-78
2021/03/12 11:37:52;;;;;;;3.85;1.52;;;11.40;30.70;;;;;;5056761;28;20238;-77
2021/03/12 11:40:19;;;;;;;7.93;1.55;;;11.50;30.80;;;;;;5063015;28;20375;-78
2021/03/12 11:42:45;;;;;;;5.15;1.42;;;11.50;29.60;;;;;;5065057;28;20270;-77
2021/03/12 11:45:14;;;;;;;3.60;1.40;;;11.60;30.00;;;;;;5063553;28;20674;-79
2021/03/12 11:47:41;;;;;;;3.28;1.20;;;11.70;29.90;;;;;;5062002;28;20209;-80
2021/03/12 11:50:10;;;;;;;3.22;1.15;;;11.70;30.20;;;;;;5061326;28;20242;-79
2021/03/12 11:52:37;;;;;;;4.00;1.45;;;11.90;30.10;;;;;;5060068;28;20203;-79
2021/03/12 11:55:06;;;;;;;8.02;1.85;;;11.90;29.30;;;;;;5059521;28;20265;-80
2021/03/12 11:57:34;;;;;;;3.22;1.20;;;11.90;29.20;;;;;;5061668;28;20203;-79
2021/03/12 12:00:01;;;;;;;6.90;1.35;;;12.00;29.10;;;;;;5064104;28;20608;-79
2021/03/12 12:02:27;;;;;;;5.15;1.48;;;11.80;29.10;;;;;;5059580;28;20218;-79
2021/03/12 12:04:53;;;;;;;6.47;2.00;;;11.70;29.50;;;;;;5053022;28;20283;-79
2021/03/12 12:07:20;;;;;;;5.38;2.00;;;11.70;29.30;;;;;;5052554;28;20278;-80
2021/03/12 12:09:46;;;;;;;7.07;1.55;;;12.00;29.10;;;;;;5061215;28;20207;-80
2021/03/12 12:12:14;;;;;;;4.40;1.50;;;11.90;29.20;;;;;;5065426;28;20213;-82
2021/03/12 12:14:42;;;;;;;5.95;1.30;;;11.90;29.50;;;;;;5077782;28;20222;-81
2021/03/12 12:17:09;;;;;;;3.53;1.10;;;12.10;29.70;;;;;;5077295;28;20209;-81
2021/03/12 12:19:36;;;;;;;5.22;1.55;;;12.10;29.00;;;;;;5076442;28;20228;-79
2021/03/12 12:22:03;;;;;;;8.85;1.75;;;12.10;28.70;;;;;;5061383;28;20219;-80
2021/03/12 12:24:29;;;;;;;5.85;1.50;;;11.90;28.60;;;;;;5043836;28;20253;-79
2021/03/12 12:26:56;;;;;;;8.35;1.83;;;11.70;28.90;;;;;;5045671;28;20202;-78
2021/03/12 12:29:22;;;;;;;5.35;1.17;;;11.70;29.10;;;;;;5061890;28;20234;-78
2021/03/12 12:31:50;;;;;;;4.78;1.65;;;11.80;29.30;;;;;;5061255;28;20621;-78
2021/03/12 12:34:16;;;;;;;6.57;1.40;;;12.10;28.90;;;;;;5061472;28;20222;-79
2021/03/12 12:36:42;;;;;;;6.00;1.60;;;12.20;29.10;;;;;;5039987;28;20207;-77
2021/03/12 12:39:10;;;;;;;8.35;1.90;;;12.40;28.70;;;;;;5041546;28;20235;-79
2021/03/12 12:41:39;;;;;;;5.68;1.52;;;12.40;27.90;;;;;;5045836;28;20323;-77
2021/03/12 12:44:06;;;;;;;4.82;1.55;;;12.20;27.90;;;;;;5045009;28;20199;-78
2021/03/12 12:46:33;;;;;;;5.95;1.23;;;12.30;27.50;;;;;;5047638;28;20214;-78
2021/03/12 12:49:00;;;;;;;3.22;0.90;;;12.40;27.40;;;;;;5048978;28;20288;-78
2021/03/12 12:51:27;;;;;;;5.65;1.35;;;12.30;27.30;;;;;;5048459;28;20238;-80
2021/03/12 12:53:53;;;;;;;5.45;1.17;;;12.20;27.20;;;;;;5048966;28;20234;-79
2021/03/12 12:56:20;;;;;;;3.03;1.30;;;12.20;28.80;;;;;;5047800;28;20203;-78
2021/03/12 12:58:46;;;;;;;3.42;1.55;;;12.20;27.70;;;;;;5044822;28;20402;-77
2021/03/12 13:01:13;;;;;;;3.65;1.52;;;12.20;28.30;;;;;;5045440;28;20257;-78
2021/03/12 13:03:39;;;;;;;6.70;1.45;;;12.20;28.10;;;;;;5059322;28;20195;-77